Аэропорт: Борисполь. Киев

ICAO: UKBB

METAR:
2021-07-28 14:30:00
UKBB 281430Z 26004MPS 230V300 CAVOK 31/17 Q1012 R88/CLRD// NOSIG
METAR:
2021-07-28 11:00:00
TAF UKBB 281100Z 2812/2912 25004G09MPS 9999 BKN030 TX32/2912Z TN19/2902Z TEMPO 2812/2818 VRB09G18MPS 1000 TSRAGR SQ SCT008 BKN025CB BECMG 2818/2820 21003MPS TEMPO 2822/2905 1000 BR SCT005